TVP7110 EPKT-HEGN
Flight info
| Callsign | TVP7110 |
|---|---|
| Flight time | 3h 45m |
| Altitude | 35000 |
| Route | BABKO DCT ABULI DCT TUVNU DCT NOPTI DCT NULGO DCT NIKTI UN127 IMR UN128 RDS UL995 VANZA DCT RASDA A16 CVO L315 SOKOT SOKOT1A |
| Aircraft | B738/M-SDFGHIJ1LORVWXYZ/LB1 |
Departure
| Time | 2026-04-27 16:06 |
|---|---|
| Airport | Katowice Wojciech Korfanty International Airport (EPKT) |
Arrival
| Time | 2026-04-27 19:52 |
|---|---|
| Airport | Hurghada International Airport (HEGN) |
| Time | Latitude | Longitude | Altitude | Speed | Heading |
|---|---|---|---|---|---|
| 2026-04-27 15:31 | 50.47144 | 19.09419 | 997 ft | 0 kts | 180° |
| 2026-04-27 15:58 | 50.47150 | 19.09420 | 997 ft | 4 kts | 180° |
| 2026-04-27 15:58 | 50.47173 | 19.09420 | 997 ft | 4 kts | 180° |
| 2026-04-27 15:59 | 50.47197 | 19.09420 | 997 ft | 4 kts | 180° |
| 2026-04-27 15:59 | 50.47216 | 19.09420 | 997 ft | 4 kts | 175° |
| 2026-04-27 15:59 | 50.47229 | 19.09413 | 1001 ft | 4 kts | 99° |
| 2026-04-27 15:59 | 50.47230 | 19.09379 | 997 ft | 4 kts | 90° |
| 2026-04-27 16:00 | 50.47230 | 19.09352 | 997 ft | 0 kts | 90° |
| 2026-04-27 16:01 | 50.47230 | 19.09356 | 1000 ft | 1 kts | 90° |
| 2026-04-27 16:02 | 50.47230 | 19.09407 | 997 ft | 8 kts | 90° |
| 2026-04-27 16:02 | 50.47230 | 19.09534 | 1003 ft | 14 kts | 90° |
| 2026-04-27 16:02 | 50.47229 | 19.09709 | 1003 ft | 18 kts | 90° |
| 2026-04-27 16:02 | 50.47229 | 19.09902 | 1002 ft | 15 kts | 90° |
| 2026-04-27 16:03 | 50.47236 | 19.10018 | 999 ft | 10 kts | 66° |
| 2026-04-27 16:03 | 50.47276 | 19.10106 | 997 ft | 10 kts | 52° |
| 2026-04-27 16:03 | 50.47317 | 19.10190 | 998 ft | 10 kts | 51° |
| 2026-04-27 16:03 | 50.47362 | 19.10278 | 1003 ft | 11 kts | 51° |
| 2026-04-27 16:04 | 50.47412 | 19.10376 | 1000 ft | 12 kts | 52° |
| 2026-04-27 16:04 | 50.47464 | 19.10451 | 1001 ft | 8 kts | 359° |
| 2026-04-27 16:04 | 50.47517 | 19.10448 | 998 ft | 8 kts | 360° |
| 2026-04-27 16:04 | 50.47569 | 19.10446 | 1000 ft | 7 kts | 351° |
| 2026-04-27 16:05 | 50.47595 | 19.10386 | 1001 ft | 8 kts | 272° |
| 2026-04-27 16:05 | 50.47596 | 19.10169 | 1001 ft | 48 kts | 270° |
| 2026-04-27 16:05 | 50.47598 | 19.09277 | 1000 ft | 113 kts | 270° |
| 2026-04-27 16:05 | 50.47604 | 19.07743 | 1012 ft | 165 kts | 270° |
| 2026-04-27 16:06 | 50.47614 | 19.05928 | 1589 ft | 170 kts | 272° |
| 2026-04-27 16:06 | 50.47617 | 19.04040 | 2254 ft | 176 kts | 272° |
| 2026-04-27 16:06 | 50.47616 | 19.01992 | 2662 ft | 200 kts | 272° |
| 2026-04-27 16:06 | 50.47614 | 18.99690 | 2917 ft | 223 kts | 272° |
| 2026-04-27 16:07 | 50.47366 | 18.97245 | 3409 ft | 234 kts | 247° |
| 2026-04-27 16:07 | 50.46353 | 18.95199 | 4035 ft | 246 kts | 223° |
| 2026-04-27 16:07 | 50.44805 | 18.93853 | 4510 ft | 266 kts | 193° |
| 2026-04-27 16:07 | 50.42931 | 18.93684 | 5268 ft | 273 kts | 182° |
| 2026-04-27 16:08 | 50.41024 | 18.93709 | 6043 ft | 276 kts | 181° |
| 2026-04-27 16:08 | 50.39097 | 18.93736 | 6821 ft | 278 kts | 182° |
| 2026-04-27 16:08 | 50.37172 | 18.93748 | 7530 ft | 282 kts | 182° |
| 2026-04-27 16:08 | 50.35200 | 18.93747 | 8256 ft | 285 kts | 182° |
| 2026-04-27 16:09 | 50.33205 | 18.93740 | 8976 ft | 288 kts | 182° |
| 2026-04-27 16:09 | 50.29318 | 18.95183 | 10246 ft | 305 kts | 140° |
| 2026-04-27 16:09 | 50.27989 | 18.97843 | 10550 ft | 323 kts | 116° |
| 2026-04-27 16:10 | 50.26072 | 19.04426 | 11080 ft | 358 kts | 112° |
| 2026-04-27 16:10 | 50.24018 | 19.11654 | 12243 ft | 369 kts | 113° |
| 2026-04-27 16:11 | 50.22948 | 19.15334 | 12814 ft | 375 kts | 113° |
| 2026-04-27 16:11 | 50.20749 | 19.22804 | 13995 ft | 382 kts | 113° |
| 2026-04-27 16:12 | 50.18476 | 19.30386 | 15133 ft | 390 kts | 116° |
| 2026-04-27 16:12 | 50.17143 | 19.34105 | 15657 ft | 395 kts | 120° |
| 2026-04-27 16:12 | 50.14250 | 19.41491 | 16750 ft | 403 kts | 120° |
| 2026-04-27 16:13 | 50.12785 | 19.45249 | 17288 ft | 407 kts | 120° |
| 2026-04-27 16:13 | 50.09246 | 19.52188 | 18323 ft | 415 kts | 143° |
| 2026-04-27 16:13 | 50.06819 | 19.54625 | 18856 ft | 415 kts | 155° |
| 2026-04-27 16:14 | 50.02485 | 19.57939 | 19687 ft | 421 kts | 156° |
| 2026-04-27 16:14 | 49.97194 | 19.62003 | 20660 ft | 428 kts | 156° |
| 2026-04-27 16:15 | 49.91831 | 19.66165 | 21602 ft | 434 kts | 155° |
| 2026-04-27 16:15 | 49.86397 | 19.70403 | 22468 ft | 440 kts | 155° |
| 2026-04-27 16:16 | 49.80884 | 19.74700 | 23323 ft | 446 kts | 155° |
| 2026-04-27 16:16 | 49.75298 | 19.79042 | 24103 ft | 453 kts | 155° |
| 2026-04-27 16:17 | 49.69634 | 19.83434 | 24882 ft | 457 kts | 155° |
| 2026-04-27 16:17 | 49.63906 | 19.87861 | 25566 ft | 463 kts | 155° |
| 2026-04-27 16:18 | 49.58109 | 19.92328 | 26247 ft | 469 kts | 155° |
| 2026-04-27 16:18 | 49.52244 | 19.96840 | 26907 ft | 474 kts | 155° |
| 2026-04-27 16:19 | 49.49287 | 19.99109 | 27197 ft | 477 kts | 155° |
| 2026-04-27 16:19 | 49.46311 | 20.01388 | 27504 ft | 479 kts | 155° |
| 2026-04-27 16:20 | 49.37325 | 20.08256 | 28434 ft | 484 kts | 156° |
| 2026-04-27 16:20 | 49.34298 | 20.10563 | 28686 ft | 487 kts | 156° |
| 2026-04-27 16:20 | 49.28206 | 20.15195 | 29253 ft | 490 kts | 155° |
| 2026-04-27 16:21 | 49.25143 | 20.17519 | 29500 ft | 492 kts | 155° |
| 2026-04-27 16:21 | 49.15892 | 20.24520 | 30226 ft | 497 kts | 155° |
| 2026-04-27 16:22 | 49.12783 | 20.26866 | 30442 ft | 499 kts | 155° |
| 2026-04-27 16:22 | 49.06545 | 20.31565 | 30943 ft | 500 kts | 155° |
| 2026-04-27 16:22 | 49.03423 | 20.33912 | 31242 ft | 500 kts | 155° |
| 2026-04-27 16:23 | 49.00309 | 20.36249 | 31555 ft | 498 kts | 155° |
| 2026-04-27 16:23 | 48.94112 | 20.40891 | 32158 ft | 496 kts | 155° |
| 2026-04-27 16:23 | 48.91015 | 20.43206 | 32453 ft | 495 kts | 156° |
| 2026-04-27 16:24 | 48.87925 | 20.45512 | 32746 ft | 494 kts | 156° |
| 2026-04-27 16:24 | 48.81772 | 20.50093 | 33279 ft | 492 kts | 156° |
| 2026-04-27 16:25 | 48.75618 | 20.54661 | 33715 ft | 492 kts | 156° |
| 2026-04-27 16:25 | 48.69488 | 20.59202 | 34222 ft | 490 kts | 156° |
| 2026-04-27 16:26 | 48.63362 | 20.63726 | 34580 ft | 490 kts | 156° |
| 2026-04-27 16:26 | 48.57251 | 20.68228 | 35057 ft | 487 kts | 156° |
| 2026-04-27 16:27 | 48.51168 | 20.72698 | 35446 ft | 487 kts | 156° |
| 2026-04-27 16:27 | 48.42068 | 20.79361 | 36080 ft | 483 kts | 156° |
| 2026-04-27 16:28 | 48.36063 | 20.83742 | 36423 ft | 482 kts | 156° |
| 2026-04-27 16:28 | 48.30041 | 20.88128 | 36870 ft | 478 kts | 156° |
| 2026-04-27 16:29 | 48.21117 | 20.94603 | 37161 ft | 475 kts | 156° |
| 2026-04-27 16:30 | 48.09323 | 21.03115 | 37158 ft | 468 kts | 157° |
| 2026-04-27 16:31 | 47.94725 | 21.13597 | 37181 ft | 464 kts | 157° |
| 2026-04-27 16:32 | 47.85983 | 21.19843 | 37186 ft | 464 kts | 157° |
| 2026-04-27 16:33 | 47.77229 | 21.26073 | 37194 ft | 466 kts | 157° |
| 2026-04-27 16:33 | 47.71372 | 21.30226 | 37184 ft | 467 kts | 157° |
| 2026-04-27 16:34 | 47.65538 | 21.34354 | 37194 ft | 468 kts | 157° |
| 2026-04-27 16:34 | 47.59653 | 21.38507 | 37179 ft | 469 kts | 157° |
| 2026-04-27 16:35 | 47.53755 | 21.42662 | 37174 ft | 470 kts | 157° |
| 2026-04-27 16:36 | 47.44902 | 21.48879 | 37186 ft | 470 kts | 157° |
| 2026-04-27 16:36 | 47.38999 | 21.53011 | 37185 ft | 469 kts | 157° |
| 2026-04-27 16:37 | 47.33101 | 21.57128 | 37191 ft | 469 kts | 157° |
| 2026-04-27 16:37 | 47.27209 | 21.61230 | 37181 ft | 468 kts | 157° |
| 2026-04-27 16:38 | 47.21321 | 21.65321 | 37185 ft | 467 kts | 157° |
| 2026-04-27 16:38 | 47.15453 | 21.69389 | 37194 ft | 466 kts | 157° |
| 2026-04-27 16:39 | 47.09585 | 21.73444 | 37185 ft | 465 kts | 157° |
| 2026-04-27 16:39 | 47.03738 | 21.77475 | 37176 ft | 464 kts | 157° |
| 2026-04-27 16:40 | 46.97900 | 21.81491 | 37188 ft | 463 kts | 157° |
| 2026-04-27 16:40 | 46.92073 | 21.85492 | 37188 ft | 462 kts | 157° |
| 2026-04-27 16:41 | 46.86252 | 21.89476 | 37186 ft | 462 kts | 157° |
| 2026-04-27 16:41 | 46.80432 | 21.93449 | 37180 ft | 462 kts | 157° |
| 2026-04-27 16:42 | 46.74614 | 21.97413 | 37187 ft | 461 kts | 158° |
| 2026-04-27 16:42 | 46.68802 | 22.01363 | 37197 ft | 461 kts | 158° |
| 2026-04-27 16:43 | 46.62982 | 22.05309 | 37184 ft | 461 kts | 158° |
| 2026-04-27 16:43 | 46.57210 | 22.09212 | 37174 ft | 461 kts | 158° |
| 2026-04-27 16:44 | 46.51390 | 22.13140 | 37186 ft | 461 kts | 158° |
| 2026-04-27 16:44 | 46.45576 | 22.17053 | 37176 ft | 461 kts | 158° |
| 2026-04-27 16:45 | 46.39763 | 22.20954 | 37166 ft | 461 kts | 158° |
| 2026-04-27 16:45 | 46.33955 | 22.24848 | 37164 ft | 460 kts | 158° |
| 2026-04-27 16:46 | 46.28130 | 22.28744 | 37170 ft | 461 kts | 158° |
| 2026-04-27 16:46 | 46.22316 | 22.32622 | 37163 ft | 460 kts | 158° |
| 2026-04-27 16:47 | 46.16500 | 22.36490 | 37171 ft | 460 kts | 158° |
| 2026-04-27 16:47 | 46.10685 | 22.40351 | 37162 ft | 460 kts | 158° |
| 2026-04-27 16:48 | 46.04862 | 22.44208 | 37152 ft | 460 kts | 158° |
| 2026-04-27 16:48 | 45.99041 | 22.48054 | 37157 ft | 460 kts | 158° |
| 2026-04-27 16:49 | 45.90317 | 22.53798 | 37154 ft | 460 kts | 158° |
| 2026-04-27 16:49 | 45.84500 | 22.57621 | 37157 ft | 459 kts | 158° |
| 2026-04-27 16:50 | 45.78721 | 22.61410 | 37148 ft | 460 kts | 158° |
| 2026-04-27 16:50 | 45.72912 | 22.65208 | 37162 ft | 459 kts | 158° |
| 2026-04-27 16:51 | 45.67107 | 22.68994 | 37169 ft | 458 kts | 158° |
| 2026-04-27 16:51 | 45.61309 | 22.72768 | 37144 ft | 459 kts | 158° |
| 2026-04-27 16:52 | 45.55508 | 22.76537 | 37143 ft | 458 kts | 158° |
| 2026-04-27 16:52 | 45.49699 | 22.80300 | 37140 ft | 458 kts | 158° |
| 2026-04-27 16:53 | 45.43899 | 22.84047 | 37137 ft | 458 kts | 159° |
| 2026-04-27 16:53 | 45.38091 | 22.87795 | 37138 ft | 458 kts | 159° |
| 2026-04-27 16:54 | 45.32283 | 22.91532 | 37135 ft | 458 kts | 159° |
| 2026-04-27 16:54 | 45.26484 | 22.95252 | 37148 ft | 458 kts | 159° |
| 2026-04-27 16:55 | 45.20683 | 22.98970 | 37137 ft | 458 kts | 159° |
| 2026-04-27 16:55 | 45.14878 | 23.02682 | 37146 ft | 458 kts | 159° |
| 2026-04-27 16:56 | 45.09061 | 23.06392 | 37143 ft | 459 kts | 159° |
| 2026-04-27 16:56 | 45.03239 | 23.10097 | 37141 ft | 459 kts | 159° |
| 2026-04-27 16:57 | 44.97451 | 23.13773 | 37136 ft | 459 kts | 159° |
| 2026-04-27 16:57 | 44.91623 | 23.17464 | 37142 ft | 459 kts | 159° |
| 2026-04-27 16:58 | 44.85794 | 23.21147 | 37149 ft | 459 kts | 159° |
| 2026-04-27 16:58 | 44.79968 | 23.24822 | 37147 ft | 459 kts | 159° |
| 2026-04-27 16:59 | 44.74147 | 23.28484 | 37147 ft | 458 kts | 159° |
| 2026-04-27 16:59 | 44.68332 | 23.32133 | 37144 ft | 458 kts | 159° |
| 2026-04-27 17:00 | 44.59607 | 23.37597 | 37150 ft | 458 kts | 159° |
| 2026-04-27 17:01 | 44.53789 | 23.41232 | 37150 ft | 457 kts | 159° |
| 2026-04-27 17:01 | 44.48963 | 23.44240 | 37157 ft | 457 kts | 159° |
| 2026-04-27 17:02 | 44.43152 | 23.47854 | 37150 ft | 457 kts | 160° |
| 2026-04-27 17:02 | 44.37347 | 23.51456 | 37159 ft | 456 kts | 160° |
| 2026-04-27 17:03 | 44.31543 | 23.55051 | 37154 ft | 456 kts | 160° |
| 2026-04-27 17:03 | 44.25733 | 23.58641 | 37160 ft | 456 kts | 160° |
| 2026-04-27 17:04 | 44.19929 | 23.62220 | 37157 ft | 456 kts | 160° |
| 2026-04-27 17:04 | 44.14120 | 23.65796 | 37159 ft | 456 kts | 160° |
| 2026-04-27 17:05 | 44.08312 | 23.69363 | 37153 ft | 456 kts | 160° |
| 2026-04-27 17:05 | 44.02357 | 23.72190 | 37147 ft | 448 kts | 176° |
| 2026-04-27 17:06 | 43.96203 | 23.73222 | 37152 ft | 446 kts | 178° |
| 2026-04-27 17:06 | 43.90037 | 23.74176 | 37156 ft | 446 kts | 178° |
| 2026-04-27 17:07 | 43.83869 | 23.75172 | 37159 ft | 447 kts | 178° |
| 2026-04-27 17:07 | 43.77696 | 23.76196 | 37156 ft | 447 kts | 177° |
| 2026-04-27 17:08 | 43.71524 | 23.77230 | 37152 ft | 447 kts | 177° |
| 2026-04-27 17:08 | 43.65340 | 23.78262 | 37149 ft | 448 kts | 177° |
| 2026-04-27 17:09 | 43.59155 | 23.79294 | 37150 ft | 448 kts | 177° |
| 2026-04-27 17:09 | 43.55021 | 23.79982 | 37143 ft | 448 kts | 177° |
| 2026-04-27 17:10 | 43.49382 | 23.80917 | 37147 ft | 448 kts | 177° |
| 2026-04-27 17:10 | 43.43201 | 23.81940 | 37149 ft | 447 kts | 177° |
| 2026-04-27 17:11 | 43.37022 | 23.82961 | 37147 ft | 447 kts | 177° |
| 2026-04-27 17:11 | 43.27805 | 23.84480 | 37145 ft | 447 kts | 177° |
| 2026-04-27 17:12 | 43.18552 | 23.86002 | 37136 ft | 446 kts | 177° |
| 2026-04-27 17:13 | 43.12384 | 23.87012 | 37137 ft | 446 kts | 177° |
| 2026-04-27 17:13 | 43.06217 | 23.88022 | 37136 ft | 446 kts | 177° |
| 2026-04-27 17:14 | 43.00055 | 23.89026 | 37143 ft | 446 kts | 177° |
| 2026-04-27 17:14 | 42.93891 | 23.90030 | 37141 ft | 446 kts | 177° |
| 2026-04-27 17:15 | 42.87730 | 23.91032 | 37133 ft | 445 kts | 177° |
| 2026-04-27 17:15 | 42.81581 | 23.92028 | 37136 ft | 445 kts | 177° |
| 2026-04-27 17:16 | 42.75435 | 23.93025 | 37138 ft | 444 kts | 177° |
| 2026-04-27 17:16 | 42.69294 | 23.94019 | 37140 ft | 445 kts | 177° |
| 2026-04-27 17:17 | 42.63151 | 23.95009 | 37134 ft | 444 kts | 177° |
| 2026-04-27 17:17 | 42.57021 | 23.95995 | 37140 ft | 444 kts | 177° |
| 2026-04-27 17:18 | 42.47825 | 23.97471 | 37137 ft | 444 kts | 177° |
| 2026-04-27 17:18 | 42.41696 | 23.98453 | 37139 ft | 443 kts | 177° |
| 2026-04-27 17:19 | 42.35572 | 23.99431 | 37142 ft | 443 kts | 177° |
| 2026-04-27 17:19 | 42.29452 | 24.00409 | 37151 ft | 443 kts | 177° |
| 2026-04-27 17:20 | 42.23337 | 24.01383 | 37148 ft | 443 kts | 177° |
| 2026-04-27 17:20 | 42.17207 | 24.02357 | 37153 ft | 443 kts | 177° |
| 2026-04-27 17:21 | 42.11082 | 24.03329 | 37150 ft | 444 kts | 177° |
| 2026-04-27 17:21 | 42.04945 | 24.04299 | 37146 ft | 444 kts | 177° |
| 2026-04-27 17:22 | 41.98805 | 24.05269 | 37149 ft | 444 kts | 177° |
| 2026-04-27 17:22 | 41.92661 | 24.06236 | 37151 ft | 445 kts | 177° |
| 2026-04-27 17:23 | 41.86512 | 24.07205 | 37142 ft | 445 kts | 177° |
| 2026-04-27 17:23 | 41.80360 | 24.08174 | 37149 ft | 445 kts | 177° |
| 2026-04-27 17:24 | 41.74212 | 24.09137 | 37151 ft | 445 kts | 177° |
| 2026-04-27 17:24 | 41.68074 | 24.10098 | 37159 ft | 444 kts | 177° |
| 2026-04-27 17:25 | 41.61927 | 24.11057 | 37157 ft | 444 kts | 177° |
| 2026-04-27 17:25 | 41.55936 | 24.13217 | 37164 ft | 453 kts | 158° |
| 2026-04-27 17:26 | 41.50502 | 24.17540 | 37162 ft | 456 kts | 150° |
| 2026-04-27 17:26 | 41.45147 | 24.22085 | 37149 ft | 456 kts | 150° |
| 2026-04-27 17:27 | 41.39786 | 24.26582 | 37159 ft | 456 kts | 151° |
| 2026-04-27 17:27 | 41.34407 | 24.31041 | 37155 ft | 455 kts | 151° |
| 2026-04-27 17:28 | 41.29056 | 24.35452 | 37156 ft | 455 kts | 151° |
| 2026-04-27 17:29 | 41.20988 | 24.42088 | 37157 ft | 455 kts | 151° |
| 2026-04-27 17:29 | 41.15577 | 24.46526 | 37159 ft | 454 kts | 151° |
| 2026-04-27 17:30 | 41.10233 | 24.50902 | 37151 ft | 454 kts | 151° |
| 2026-04-27 17:30 | 41.02167 | 24.57492 | 37155 ft | 454 kts | 151° |
| 2026-04-27 17:31 | 40.96798 | 24.61867 | 37155 ft | 453 kts | 151° |
| 2026-04-27 17:31 | 40.91426 | 24.66238 | 37159 ft | 453 kts | 151° |
| 2026-04-27 17:32 | 40.83373 | 24.72776 | 37154 ft | 452 kts | 151° |
| 2026-04-27 17:33 | 40.78011 | 24.77116 | 37159 ft | 452 kts | 151° |
| 2026-04-27 17:33 | 40.72650 | 24.81448 | 37157 ft | 451 kts | 151° |
| 2026-04-27 17:34 | 40.67293 | 24.85764 | 37156 ft | 451 kts | 151° |
| 2026-04-27 17:34 | 40.61933 | 24.90080 | 37159 ft | 452 kts | 152° |
| 2026-04-27 17:35 | 40.56569 | 24.94392 | 37155 ft | 452 kts | 151° |
| 2026-04-27 17:35 | 40.51205 | 24.98692 | 37150 ft | 452 kts | 152° |
| 2026-04-27 17:36 | 40.45828 | 25.02995 | 37151 ft | 453 kts | 152° |
| 2026-04-27 17:36 | 40.40444 | 25.07297 | 37145 ft | 453 kts | 151° |
| 2026-04-27 17:37 | 40.35061 | 25.11589 | 37146 ft | 453 kts | 152° |
| 2026-04-27 17:37 | 40.29680 | 25.15872 | 37139 ft | 453 kts | 152° |
| 2026-04-27 17:38 | 40.24279 | 25.20162 | 37140 ft | 453 kts | 151° |
| 2026-04-27 17:38 | 40.18889 | 25.24436 | 37137 ft | 453 kts | 152° |
| 2026-04-27 17:39 | 40.13495 | 25.28704 | 37143 ft | 453 kts | 152° |
| 2026-04-27 17:39 | 40.08103 | 25.32970 | 37143 ft | 453 kts | 151° |
| 2026-04-27 17:40 | 40.02714 | 25.37215 | 37137 ft | 452 kts | 152° |
| 2026-04-27 17:40 | 39.97334 | 25.41445 | 37136 ft | 452 kts | 151° |
| 2026-04-27 17:41 | 39.91988 | 25.45643 | 37138 ft | 451 kts | 151° |
| 2026-04-27 17:41 | 39.86622 | 25.49853 | 37139 ft | 450 kts | 151° |
| 2026-04-27 17:42 | 39.81258 | 25.54051 | 37144 ft | 450 kts | 151° |
| 2026-04-27 17:42 | 39.75898 | 25.58238 | 37147 ft | 449 kts | 151° |
| 2026-04-27 17:43 | 39.70543 | 25.62413 | 37146 ft | 448 kts | 151° |
| 2026-04-27 17:43 | 39.65197 | 25.66574 | 37148 ft | 448 kts | 151° |
| 2026-04-27 17:44 | 39.59842 | 25.70735 | 37150 ft | 449 kts | 152° |
| 2026-04-27 17:44 | 39.54480 | 25.74892 | 37150 ft | 449 kts | 152° |
| 2026-04-27 17:45 | 39.49119 | 25.79043 | 37142 ft | 449 kts | 152° |
| 2026-04-27 17:45 | 39.43748 | 25.83192 | 37138 ft | 450 kts | 152° |
| 2026-04-27 17:46 | 39.39283 | 25.86637 | 37133 ft | 450 kts | 152° |
| 2026-04-27 17:46 | 39.33908 | 25.90779 | 37126 ft | 450 kts | 152° |
| 2026-04-27 17:47 | 39.28555 | 25.94985 | 37114 ft | 452 kts | 146° |
| 2026-04-27 17:47 | 39.23667 | 26.00113 | 37116 ft | 453 kts | 141° |
| 2026-04-27 17:48 | 39.18872 | 26.05393 | 37113 ft | 453 kts | 141° |
| 2026-04-27 17:48 | 39.14045 | 26.10627 | 37102 ft | 454 kts | 142° |
| 2026-04-27 17:49 | 39.09187 | 26.15824 | 37083 ft | 454 kts | 142° |
| 2026-04-27 17:49 | 39.04319 | 26.21008 | 37084 ft | 454 kts | 142° |
| 2026-04-27 17:50 | 38.99450 | 26.26184 | 37071 ft | 454 kts | 142° |
| 2026-04-27 17:50 | 38.92147 | 26.33936 | 37070 ft | 454 kts | 142° |
| 2026-04-27 17:51 | 38.87286 | 26.39084 | 37075 ft | 453 kts | 142° |
| 2026-04-27 17:51 | 38.82430 | 26.44228 | 37071 ft | 453 kts | 141° |
| 2026-04-27 17:52 | 38.77676 | 26.49518 | 37069 ft | 453 kts | 140° |
| 2026-04-27 17:52 | 38.72955 | 26.54859 | 37062 ft | 453 kts | 140° |
| 2026-04-27 17:53 | 38.68225 | 26.60174 | 37066 ft | 452 kts | 140° |
| 2026-04-27 17:53 | 38.63490 | 26.65465 | 37062 ft | 452 kts | 141° |
| 2026-04-27 17:54 | 38.58746 | 26.70749 | 37054 ft | 452 kts | 141° |
| 2026-04-27 17:54 | 38.53997 | 26.76028 | 37056 ft | 453 kts | 141° |
| 2026-04-27 17:55 | 38.49244 | 26.81302 | 37045 ft | 453 kts | 141° |
| 2026-04-27 17:55 | 38.44496 | 26.86565 | 37038 ft | 452 kts | 141° |
| 2026-04-27 17:56 | 38.39749 | 26.91817 | 37039 ft | 452 kts | 141° |
| 2026-04-27 17:56 | 38.34994 | 26.97066 | 37029 ft | 452 kts | 141° |
| 2026-04-27 17:57 | 38.29948 | 27.01783 | 37019 ft | 448 kts | 155° |
| 2026-04-27 17:57 | 38.24252 | 27.04964 | 37018 ft | 447 kts | 159° |
| 2026-04-27 17:58 | 38.18525 | 27.08049 | 37019 ft | 447 kts | 159° |
| 2026-04-27 17:58 | 38.12808 | 27.11178 | 37016 ft | 448 kts | 159° |
| 2026-04-27 17:59 | 38.07128 | 27.14313 | 37013 ft | 448 kts | 159° |
| 2026-04-27 17:59 | 38.01405 | 27.17475 | 37006 ft | 449 kts | 159° |
| 2026-04-27 18:00 | 37.95678 | 27.20630 | 36995 ft | 449 kts | 159° |
| 2026-04-27 18:00 | 37.89947 | 27.23786 | 36999 ft | 449 kts | 159° |
| 2026-04-27 18:01 | 37.84215 | 27.26936 | 36992 ft | 449 kts | 159° |
| 2026-04-27 18:01 | 37.78436 | 27.30105 | 36992 ft | 450 kts | 159° |
| 2026-04-27 18:02 | 37.72731 | 27.33228 | 36992 ft | 450 kts | 159° |
| 2026-04-27 18:02 | 37.66974 | 27.36374 | 36982 ft | 451 kts | 159° |
| 2026-04-27 18:03 | 37.61222 | 27.39536 | 36971 ft | 451 kts | 158° |
| 2026-04-27 18:03 | 37.55532 | 27.42868 | 36973 ft | 451 kts | 157° |
| 2026-04-27 18:04 | 37.49837 | 27.46196 | 36970 ft | 451 kts | 158° |
| 2026-04-27 18:04 | 37.44075 | 27.49273 | 36971 ft | 450 kts | 160° |
| 2026-04-27 18:05 | 37.38275 | 27.52226 | 36978 ft | 449 kts | 160° |
| 2026-04-27 18:05 | 37.32494 | 27.55219 | 36974 ft | 450 kts | 160° |
| 2026-04-27 18:06 | 37.26718 | 27.58239 | 36962 ft | 450 kts | 160° |
| 2026-04-27 18:06 | 37.20966 | 27.61355 | 36974 ft | 450 kts | 159° |
| 2026-04-27 18:07 | 37.15218 | 27.64490 | 36968 ft | 451 kts | 159° |
| 2026-04-27 18:07 | 37.09460 | 27.67616 | 36973 ft | 451 kts | 159° |
| 2026-04-27 18:08 | 37.03696 | 27.70731 | 36973 ft | 452 kts | 159° |
| 2026-04-27 18:08 | 36.97915 | 27.73848 | 36972 ft | 453 kts | 159° |
| 2026-04-27 18:09 | 36.92125 | 27.76965 | 36973 ft | 453 kts | 159° |
| 2026-04-27 18:09 | 36.86327 | 27.80083 | 36972 ft | 454 kts | 159° |
| 2026-04-27 18:10 | 36.80518 | 27.83201 | 36974 ft | 455 kts | 159° |
| 2026-04-27 18:10 | 36.74698 | 27.86320 | 36974 ft | 455 kts | 159° |
| 2026-04-27 18:11 | 36.68874 | 27.89425 | 36970 ft | 455 kts | 160° |
| 2026-04-27 18:11 | 36.63334 | 27.93267 | 36986 ft | 460 kts | 142° |
| 2026-04-27 18:12 | 36.58603 | 27.98653 | 36980 ft | 461 kts | 139° |
| 2026-04-27 18:12 | 36.53903 | 28.04104 | 36970 ft | 462 kts | 139° |
| 2026-04-27 18:13 | 36.49173 | 28.09518 | 36970 ft | 462 kts | 139° |
| 2026-04-27 18:13 | 36.44425 | 28.14899 | 36965 ft | 462 kts | 139° |
| 2026-04-27 18:14 | 36.39675 | 28.20263 | 36964 ft | 461 kts | 140° |
| 2026-04-27 18:14 | 36.34928 | 28.25613 | 36969 ft | 461 kts | 140° |
| 2026-04-27 18:15 | 36.30215 | 28.30918 | 36975 ft | 460 kts | 140° |
| 2026-04-27 18:15 | 36.25474 | 28.36249 | 36971 ft | 460 kts | 140° |
| 2026-04-27 18:16 | 36.20732 | 28.41573 | 36973 ft | 460 kts | 140° |
| 2026-04-27 18:16 | 36.15988 | 28.46886 | 36973 ft | 460 kts | 140° |
| 2026-04-27 18:17 | 36.11247 | 28.52188 | 36978 ft | 459 kts | 140° |
| 2026-04-27 18:17 | 36.06505 | 28.57482 | 36981 ft | 459 kts | 140° |
| 2026-04-27 18:18 | 36.01758 | 28.62772 | 36981 ft | 459 kts | 140° |
| 2026-04-27 18:18 | 35.97008 | 28.68056 | 36974 ft | 460 kts | 140° |
| 2026-04-27 18:19 | 35.92255 | 28.73334 | 36982 ft | 460 kts | 140° |
| 2026-04-27 18:19 | 35.87497 | 28.78611 | 36983 ft | 460 kts | 140° |
| 2026-04-27 18:20 | 35.82731 | 28.83887 | 36996 ft | 461 kts | 140° |
| 2026-04-27 18:20 | 35.77955 | 28.89165 | 37003 ft | 461 kts | 140° |
| 2026-04-27 18:21 | 35.73167 | 28.94447 | 37003 ft | 463 kts | 140° |
| 2026-04-27 18:21 | 35.68369 | 28.99732 | 36999 ft | 464 kts | 140° |
| 2026-04-27 18:22 | 35.63555 | 29.05023 | 36994 ft | 464 kts | 140° |
| 2026-04-27 18:22 | 35.58734 | 29.10317 | 36992 ft | 465 kts | 140° |
| 2026-04-27 18:23 | 35.53910 | 29.15606 | 36987 ft | 465 kts | 140° |
| 2026-04-27 18:23 | 35.49088 | 29.20882 | 36991 ft | 464 kts | 140° |
| 2026-04-27 18:24 | 35.44271 | 29.26143 | 36990 ft | 464 kts | 140° |
| 2026-04-27 18:24 | 35.39453 | 29.31396 | 36993 ft | 463 kts | 140° |
| 2026-04-27 18:25 | 35.34641 | 29.36634 | 36996 ft | 462 kts | 140° |
| 2026-04-27 18:25 | 35.29832 | 29.41859 | 36988 ft | 462 kts | 140° |
| 2026-04-27 18:26 | 35.25020 | 29.47078 | 36991 ft | 462 kts | 140° |
| 2026-04-27 18:26 | 35.20212 | 29.52288 | 36989 ft | 461 kts | 140° |
| 2026-04-27 18:27 | 35.15405 | 29.57487 | 36991 ft | 461 kts | 140° |
| 2026-04-27 18:27 | 35.10595 | 29.62676 | 36990 ft | 461 kts | 141° |
| 2026-04-27 18:28 | 35.05783 | 29.67863 | 36993 ft | 461 kts | 141° |
| 2026-04-27 18:28 | 35.00973 | 29.73042 | 36989 ft | 462 kts | 141° |
| 2026-04-27 18:29 | 34.96963 | 29.77350 | 36993 ft | 462 kts | 141° |
| 2026-04-27 18:29 | 34.92137 | 29.82529 | 36991 ft | 463 kts | 141° |
| 2026-04-27 18:30 | 34.87296 | 29.87715 | 36990 ft | 463 kts | 141° |
| 2026-04-27 18:30 | 34.82451 | 29.92898 | 36992 ft | 464 kts | 141° |
| 2026-04-27 18:31 | 34.77595 | 29.98079 | 36992 ft | 465 kts | 142° |
| 2026-04-27 18:31 | 34.72215 | 30.02278 | 36999 ft | 458 kts | 158° |
| 2026-04-27 18:32 | 34.66437 | 30.05577 | 36990 ft | 459 kts | 158° |
| 2026-04-27 18:32 | 34.60646 | 30.08875 | 36981 ft | 460 kts | 158° |
| 2026-04-27 18:33 | 34.54867 | 30.12213 | 36982 ft | 460 kts | 158° |
| 2026-04-27 18:33 | 34.49088 | 30.15572 | 36987 ft | 461 kts | 158° |
| 2026-04-27 18:34 | 34.43305 | 30.18936 | 36985 ft | 461 kts | 158° |
| 2026-04-27 18:34 | 34.37524 | 30.22292 | 36981 ft | 461 kts | 158° |
| 2026-04-27 18:35 | 34.31754 | 30.25635 | 36983 ft | 460 kts | 158° |
| 2026-04-27 18:35 | 34.25971 | 30.28980 | 36990 ft | 459 kts | 158° |
| 2026-04-27 18:36 | 34.20208 | 30.32306 | 36997 ft | 459 kts | 158° |
| 2026-04-27 18:36 | 34.14449 | 30.35627 | 37004 ft | 459 kts | 158° |
| 2026-04-27 18:37 | 34.08687 | 30.38945 | 36999 ft | 459 kts | 158° |
| 2026-04-27 18:37 | 34.02933 | 30.42255 | 37003 ft | 459 kts | 158° |
| 2026-04-27 18:38 | 33.97158 | 30.45569 | 36998 ft | 459 kts | 158° |
| 2026-04-27 18:38 | 33.91391 | 30.48873 | 36996 ft | 459 kts | 158° |
| 2026-04-27 18:39 | 33.85620 | 30.52175 | 37003 ft | 459 kts | 158° |
| 2026-04-27 18:39 | 33.79842 | 30.55476 | 37000 ft | 460 kts | 158° |
| 2026-04-27 18:40 | 33.74059 | 30.58774 | 37000 ft | 460 kts | 158° |
| 2026-04-27 18:40 | 33.68267 | 30.62071 | 37001 ft | 461 kts | 158° |
| 2026-04-27 18:41 | 33.62476 | 30.65366 | 37001 ft | 461 kts | 158° |
| 2026-04-27 18:41 | 33.56679 | 30.68660 | 36999 ft | 461 kts | 158° |
| 2026-04-27 18:42 | 33.51857 | 30.71396 | 37003 ft | 462 kts | 158° |
| 2026-04-27 18:42 | 33.45062 | 30.75244 | 37003 ft | 462 kts | 158° |
| 2026-04-27 18:43 | 33.39285 | 30.78511 | 37000 ft | 462 kts | 159° |
| 2026-04-27 18:43 | 33.33468 | 30.81795 | 37001 ft | 462 kts | 158° |
| 2026-04-27 18:44 | 33.27646 | 30.85078 | 37000 ft | 463 kts | 159° |
| 2026-04-27 18:44 | 33.21823 | 30.88357 | 37000 ft | 462 kts | 158° |
| 2026-04-27 18:45 | 33.16000 | 30.91631 | 37000 ft | 463 kts | 159° |
| 2026-04-27 18:45 | 33.10102 | 30.94654 | 36991 ft | 458 kts | 168° |
| 2026-04-27 18:46 | 33.03897 | 30.95824 | 37011 ft | 450 kts | 180° |
| 2026-04-27 18:46 | 32.97665 | 30.96440 | 36996 ft | 450 kts | 180° |
| 2026-04-27 18:47 | 32.91414 | 30.97086 | 37001 ft | 451 kts | 180° |
| 2026-04-27 18:47 | 32.85155 | 30.97770 | 37000 ft | 452 kts | 179° |
| 2026-04-27 18:48 | 32.78884 | 30.98469 | 37001 ft | 453 kts | 179° |
| 2026-04-27 18:48 | 32.72612 | 30.99167 | 37000 ft | 453 kts | 179° |
| 2026-04-27 18:49 | 32.66330 | 30.99866 | 37000 ft | 453 kts | 179° |
| 2026-04-27 18:49 | 32.60042 | 31.00563 | 37005 ft | 454 kts | 180° |
| 2026-04-27 18:50 | 32.53756 | 31.01259 | 37010 ft | 454 kts | 180° |
| 2026-04-27 18:50 | 32.47467 | 31.01954 | 37011 ft | 454 kts | 180° |
| 2026-04-27 18:51 | 32.41183 | 31.02649 | 37008 ft | 453 kts | 180° |
| 2026-04-27 18:51 | 32.34900 | 31.03342 | 37009 ft | 453 kts | 180° |
| 2026-04-27 18:52 | 32.28622 | 31.04032 | 37009 ft | 453 kts | 180° |
| 2026-04-27 18:53 | 32.19200 | 31.05068 | 37009 ft | 453 kts | 180° |
| 2026-04-27 18:53 | 32.12920 | 31.05757 | 37010 ft | 453 kts | 180° |
| 2026-04-27 18:54 | 32.06639 | 31.06446 | 37009 ft | 453 kts | 180° |
| 2026-04-27 18:54 | 32.00352 | 31.07132 | 37010 ft | 454 kts | 180° |
| 2026-04-27 18:55 | 31.94063 | 31.07820 | 37003 ft | 454 kts | 180° |
| 2026-04-27 18:55 | 31.87776 | 31.08508 | 37013 ft | 454 kts | 180° |
| 2026-04-27 18:56 | 31.81533 | 31.09188 | 37010 ft | 454 kts | 180° |
| 2026-04-27 18:56 | 31.75238 | 31.09873 | 37008 ft | 455 kts | 180° |
| 2026-04-27 18:57 | 31.68939 | 31.10560 | 37006 ft | 455 kts | 180° |
| 2026-04-27 18:57 | 31.62598 | 31.11248 | 37010 ft | 455 kts | 180° |
| 2026-04-27 18:58 | 31.56297 | 31.11932 | 37010 ft | 455 kts | 180° |
| 2026-04-27 18:58 | 31.49993 | 31.12736 | 37007 ft | 457 kts | 177° |
| 2026-04-27 18:59 | 31.43745 | 31.13921 | 37009 ft | 458 kts | 176° |
| 2026-04-27 18:59 | 31.37449 | 31.15140 | 37011 ft | 458 kts | 177° |
| 2026-04-27 19:00 | 31.31157 | 31.16308 | 37008 ft | 458 kts | 177° |
| 2026-04-27 19:00 | 31.24866 | 31.17460 | 37012 ft | 458 kts | 177° |
| 2026-04-27 19:01 | 31.18571 | 31.18627 | 37010 ft | 458 kts | 177° |
| 2026-04-27 19:01 | 31.12273 | 31.19808 | 37008 ft | 458 kts | 177° |
| 2026-04-27 19:02 | 31.05978 | 31.20986 | 37014 ft | 458 kts | 177° |
| 2026-04-27 19:02 | 30.99682 | 31.22161 | 37015 ft | 458 kts | 177° |
| 2026-04-27 19:03 | 30.93395 | 31.23331 | 37019 ft | 458 kts | 177° |
| 2026-04-27 19:03 | 30.87096 | 31.24503 | 37022 ft | 458 kts | 177° |
| 2026-04-27 19:04 | 30.80792 | 31.25674 | 37019 ft | 459 kts | 178° |
| 2026-04-27 19:04 | 30.74490 | 31.26843 | 37017 ft | 459 kts | 178° |
| 2026-04-27 19:05 | 30.68186 | 31.28011 | 37017 ft | 459 kts | 178° |
| 2026-04-27 19:05 | 30.61888 | 31.29176 | 37021 ft | 459 kts | 178° |
| 2026-04-27 19:06 | 30.55578 | 31.30342 | 37019 ft | 459 kts | 178° |
| 2026-04-27 19:06 | 30.49269 | 31.31507 | 37013 ft | 459 kts | 178° |
| 2026-04-27 19:07 | 30.42965 | 31.32666 | 37018 ft | 459 kts | 178° |
| 2026-04-27 19:07 | 30.36659 | 31.33813 | 37019 ft | 459 kts | 178° |
| 2026-04-27 19:08 | 30.30349 | 31.34960 | 37021 ft | 459 kts | 178° |
| 2026-04-27 19:08 | 30.24046 | 31.36106 | 37017 ft | 458 kts | 178° |
| 2026-04-27 19:09 | 30.17755 | 31.37249 | 37019 ft | 458 kts | 178° |
| 2026-04-27 19:09 | 30.11463 | 31.38547 | 37007 ft | 465 kts | 170° |
| 2026-04-27 19:10 | 30.05520 | 31.41745 | 37009 ft | 481 kts | 150° |
| 2026-04-27 19:10 | 30.00126 | 31.46361 | 37016 ft | 484 kts | 148° |
| 2026-04-27 19:11 | 29.94774 | 31.51059 | 37012 ft | 484 kts | 148° |
| 2026-04-27 19:11 | 29.89393 | 31.55712 | 37012 ft | 483 kts | 149° |
| 2026-04-27 19:12 | 29.84899 | 31.59550 | 37011 ft | 484 kts | 149° |
| 2026-04-27 19:12 | 29.79487 | 31.64150 | 37010 ft | 484 kts | 149° |
| 2026-04-27 19:13 | 29.74074 | 31.68746 | 37006 ft | 484 kts | 149° |
| 2026-04-27 19:13 | 29.68652 | 31.73342 | 36994 ft | 484 kts | 149° |
| 2026-04-27 19:14 | 29.63229 | 31.77936 | 36998 ft | 484 kts | 149° |
| 2026-04-27 19:14 | 29.57814 | 31.82520 | 36997 ft | 483 kts | 149° |
| 2026-04-27 19:15 | 29.52405 | 31.87089 | 36991 ft | 483 kts | 149° |
| 2026-04-27 19:15 | 29.46991 | 31.91654 | 36993 ft | 483 kts | 149° |
| 2026-04-27 19:16 | 29.41575 | 31.96217 | 36990 ft | 483 kts | 149° |
| 2026-04-27 19:16 | 29.36156 | 32.00776 | 36979 ft | 483 kts | 150° |
| 2026-04-27 19:17 | 29.30739 | 32.05332 | 36987 ft | 483 kts | 150° |
| 2026-04-27 19:17 | 29.25314 | 32.09884 | 36977 ft | 483 kts | 150° |
| 2026-04-27 19:18 | 29.19887 | 32.14430 | 36985 ft | 483 kts | 150° |
| 2026-04-27 19:18 | 29.14467 | 32.18965 | 36982 ft | 483 kts | 150° |
| 2026-04-27 19:19 | 29.09036 | 32.23503 | 36978 ft | 483 kts | 150° |
| 2026-04-27 19:19 | 29.03612 | 32.28031 | 36980 ft | 483 kts | 150° |
| 2026-04-27 19:20 | 28.98224 | 32.32522 | 36990 ft | 483 kts | 150° |
| 2026-04-27 19:20 | 28.92795 | 32.37042 | 36982 ft | 483 kts | 151° |
| 2026-04-27 19:21 | 28.87349 | 32.41568 | 36774 ft | 487 kts | 151° |
| 2026-04-27 19:21 | 28.84611 | 32.43841 | 36424 ft | 485 kts | 150° |
| 2026-04-27 19:21 | 28.81895 | 32.46097 | 36035 ft | 481 kts | 150° |
| 2026-04-27 19:21 | 28.79197 | 32.48337 | 35638 ft | 478 kts | 150° |
| 2026-04-27 19:22 | 28.76518 | 32.50558 | 35231 ft | 475 kts | 150° |
| 2026-04-27 19:22 | 28.73856 | 32.52766 | 34814 ft | 472 kts | 150° |
| 2026-04-27 19:22 | 28.71206 | 32.54962 | 34419 ft | 469 kts | 150° |
| 2026-04-27 19:22 | 28.68581 | 32.57134 | 34009 ft | 465 kts | 150° |
| 2026-04-27 19:23 | 28.65967 | 32.59295 | 33609 ft | 462 kts | 150° |
| 2026-04-27 19:23 | 28.63375 | 32.61436 | 33211 ft | 459 kts | 150° |
| 2026-04-27 19:23 | 28.60795 | 32.63566 | 32814 ft | 456 kts | 150° |
| 2026-04-27 19:23 | 28.58237 | 32.65677 | 32419 ft | 453 kts | 150° |
| 2026-04-27 19:24 | 28.55690 | 32.67779 | 32029 ft | 451 kts | 149° |
| 2026-04-27 19:24 | 28.53161 | 32.69863 | 31641 ft | 448 kts | 149° |
| 2026-04-27 19:24 | 28.50643 | 32.71937 | 31250 ft | 445 kts | 149° |
| 2026-04-27 19:24 | 28.48146 | 32.73992 | 30865 ft | 442 kts | 149° |
| 2026-04-27 19:25 | 28.45663 | 32.76035 | 30484 ft | 439 kts | 149° |
| 2026-04-27 19:25 | 28.43202 | 32.78059 | 30110 ft | 436 kts | 149° |
| 2026-04-27 19:25 | 28.40756 | 32.80069 | 29730 ft | 433 kts | 149° |
| 2026-04-27 19:25 | 28.38320 | 32.82070 | 29351 ft | 430 kts | 149° |
| 2026-04-27 19:26 | 28.35901 | 32.84054 | 28968 ft | 428 kts | 149° |
| 2026-04-27 19:26 | 28.33493 | 32.86029 | 28567 ft | 426 kts | 149° |
| 2026-04-27 19:26 | 28.31094 | 32.87995 | 28179 ft | 424 kts | 149° |
| 2026-04-27 19:26 | 28.28710 | 32.89948 | 27788 ft | 422 kts | 149° |
| 2026-04-27 19:27 | 28.26337 | 32.91892 | 27404 ft | 420 kts | 149° |
| 2026-04-27 19:27 | 28.23975 | 32.93824 | 27020 ft | 418 kts | 149° |
| 2026-04-27 19:27 | 28.21625 | 32.95747 | 26635 ft | 416 kts | 149° |
| 2026-04-27 19:27 | 28.19285 | 32.97661 | 26252 ft | 414 kts | 149° |
| 2026-04-27 19:28 | 28.16958 | 32.99563 | 25871 ft | 411 kts | 149° |
| 2026-04-27 19:28 | 28.14644 | 33.01453 | 25496 ft | 409 kts | 149° |
| 2026-04-27 19:28 | 28.12340 | 33.03333 | 25112 ft | 407 kts | 148° |
| 2026-04-27 19:28 | 28.10044 | 33.05206 | 24742 ft | 405 kts | 148° |
| 2026-04-27 19:29 | 28.07763 | 33.07065 | 24368 ft | 403 kts | 148° |
| 2026-04-27 19:29 | 28.05493 | 33.08916 | 23993 ft | 401 kts | 148° |
| 2026-04-27 19:29 | 28.03229 | 33.10761 | 23619 ft | 400 kts | 148° |
| 2026-04-27 19:29 | 28.00984 | 33.12588 | 23354 ft | 394 kts | 148° |
| 2026-04-27 19:30 | 27.98775 | 33.14387 | 23100 ft | 389 kts | 148° |
| 2026-04-27 19:30 | 27.96580 | 33.16173 | 22742 ft | 388 kts | 149° |
| 2026-04-27 19:30 | 27.94399 | 33.17945 | 22398 ft | 386 kts | 149° |
| 2026-04-27 19:30 | 27.92223 | 33.19712 | 22040 ft | 384 kts | 149° |
| 2026-04-27 19:31 | 27.90056 | 33.21472 | 21672 ft | 383 kts | 149° |
| 2026-04-27 19:31 | 27.87896 | 33.23224 | 21309 ft | 382 kts | 149° |
| 2026-04-27 19:31 | 27.85745 | 33.24969 | 20944 ft | 381 kts | 149° |
| 2026-04-27 19:31 | 27.83594 | 33.26712 | 20578 ft | 380 kts | 149° |
| 2026-04-27 19:32 | 27.81479 | 33.28427 | 20205 ft | 379 kts | 149° |
| 2026-04-27 19:32 | 27.79342 | 33.30158 | 19838 ft | 378 kts | 148° |
| 2026-04-27 19:32 | 27.77210 | 33.31884 | 19465 ft | 377 kts | 148° |
| 2026-04-27 19:32 | 27.75082 | 33.33607 | 19094 ft | 376 kts | 148° |
| 2026-04-27 19:33 | 27.72961 | 33.35323 | 18727 ft | 374 kts | 148° |
| 2026-04-27 19:33 | 27.71533 | 33.36478 | 18488 ft | 374 kts | 148° |
| 2026-04-27 19:33 | 27.68737 | 33.38738 | 17992 ft | 372 kts | 148° |
| 2026-04-27 19:33 | 27.66639 | 33.40432 | 17627 ft | 371 kts | 148° |
| 2026-04-27 19:34 | 27.64542 | 33.42125 | 17261 ft | 370 kts | 148° |
| 2026-04-27 19:34 | 27.62455 | 33.43810 | 16899 ft | 369 kts | 148° |
| 2026-04-27 19:34 | 27.60372 | 33.45491 | 16539 ft | 368 kts | 148° |
| 2026-04-27 19:34 | 27.58294 | 33.47167 | 16174 ft | 367 kts | 148° |
| 2026-04-27 19:35 | 27.56224 | 33.48836 | 15820 ft | 366 kts | 148° |
| 2026-04-27 19:35 | 27.54155 | 33.50503 | 15454 ft | 365 kts | 148° |
| 2026-04-27 19:35 | 27.52093 | 33.52157 | 15097 ft | 363 kts | 149° |
| 2026-04-27 19:35 | 27.49903 | 33.53536 | 14730 ft | 358 kts | 159° |
| 2026-04-27 19:36 | 27.47618 | 33.54622 | 14383 ft | 356 kts | 162° |
| 2026-04-27 19:36 | 27.45321 | 33.55649 | 14022 ft | 355 kts | 162° |
| 2026-04-27 19:36 | 27.43034 | 33.56692 | 13662 ft | 354 kts | 161° |
| 2026-04-27 19:36 | 27.40769 | 33.57762 | 13305 ft | 353 kts | 160° |
| 2026-04-27 19:37 | 27.38520 | 33.58847 | 12953 ft | 351 kts | 160° |
| 2026-04-27 19:37 | 27.36278 | 33.59935 | 12593 ft | 350 kts | 160° |
| 2026-04-27 19:37 | 27.34010 | 33.60904 | 12229 ft | 347 kts | 167° |
| 2026-04-27 19:37 | 27.31690 | 33.61601 | 11885 ft | 344 kts | 169° |
| 2026-04-27 19:38 | 27.29368 | 33.62228 | 11540 ft | 343 kts | 169° |
| 2026-04-27 19:38 | 27.27050 | 33.62862 | 11186 ft | 342 kts | 169° |
| 2026-04-27 19:38 | 27.24747 | 33.63518 | 10834 ft | 341 kts | 168° |
| 2026-04-27 19:38 | 27.22452 | 33.64192 | 10489 ft | 340 kts | 168° |
| 2026-04-27 19:39 | 27.20168 | 33.64870 | 10155 ft | 338 kts | 168° |
| 2026-04-27 19:39 | 27.17973 | 33.65521 | 10027 ft | 330 kts | 168° |
| 2026-04-27 19:39 | 27.17338 | 33.65709 | 9970 ft | 328 kts | 168° |
| 2026-04-27 19:39 | 27.15544 | 33.66244 | 9875 ft | 321 kts | 168° |
| 2026-04-27 19:40 | 27.14535 | 33.66544 | 9876 ft | 316 kts | 168° |
| 2026-04-27 19:40 | 27.12442 | 33.67166 | 9861 ft | 305 kts | 168° |
| 2026-04-27 19:40 | 27.10420 | 33.67766 | 9813 ft | 297 kts | 168° |
| 2026-04-27 19:40 | 27.08440 | 33.68352 | 9666 ft | 292 kts | 168° |
| 2026-04-27 19:41 | 27.06480 | 33.68932 | 9404 ft | 291 kts | 168° |
| 2026-04-27 19:41 | 27.04522 | 33.69511 | 9156 ft | 291 kts | 168° |
| 2026-04-27 19:41 | 27.02575 | 33.70085 | 8926 ft | 290 kts | 168° |
| 2026-04-27 19:41 | 27.00628 | 33.70660 | 8678 ft | 289 kts | 168° |
| 2026-04-27 19:42 | 26.98679 | 33.71236 | 8446 ft | 289 kts | 168° |
| 2026-04-27 19:42 | 26.96738 | 33.71809 | 8202 ft | 288 kts | 168° |
| 2026-04-27 19:42 | 26.94821 | 33.72339 | 7982 ft | 287 kts | 169° |
| 2026-04-27 19:42 | 26.92860 | 33.72878 | 7709 ft | 287 kts | 167° |
| 2026-04-27 19:43 | 26.90938 | 33.73505 | 7450 ft | 287 kts | 166° |
| 2026-04-27 19:43 | 26.89036 | 33.74154 | 7245 ft | 285 kts | 166° |
| 2026-04-27 19:43 | 26.87171 | 33.74800 | 7026 ft | 285 kts | 164° |
| 2026-04-27 19:43 | 26.85434 | 33.75880 | 6709 ft | 291 kts | 138° |
| 2026-04-27 19:44 | 26.84275 | 33.77728 | 6395 ft | 293 kts | 109° |
| 2026-04-27 19:44 | 26.83971 | 33.79943 | 6202 ft | 287 kts | 81° |
| 2026-04-27 19:44 | 26.84556 | 33.81996 | 6044 ft | 273 kts | 53° |
| 2026-04-27 19:44 | 26.85786 | 33.83573 | 5817 ft | 266 kts | 36° |
| 2026-04-27 19:45 | 26.87342 | 33.84607 | 5605 ft | 256 kts | 17° |
| 2026-04-27 19:45 | 26.88969 | 33.85345 | 5533 ft | 249 kts | 17° |
| 2026-04-27 19:45 | 26.90605 | 33.85663 | 5451 ft | 230 kts | 351° |
| 2026-04-27 19:45 | 26.92126 | 33.85474 | 5371 ft | 213 kts | 351° |
| 2026-04-27 19:46 | 26.93587 | 33.85342 | 5026 ft | 209 kts | 352° |
| 2026-04-27 19:46 | 26.95025 | 33.85237 | 4650 ft | 205 kts | 353° |
| 2026-04-27 19:46 | 26.96432 | 33.85145 | 4272 ft | 200 kts | 354° |
| 2026-04-27 19:46 | 26.97808 | 33.85037 | 3926 ft | 194 kts | 349° |
| 2026-04-27 19:47 | 26.99072 | 33.84677 | 3659 ft | 180 kts | 342° |
| 2026-04-27 19:47 | 27.00223 | 33.84320 | 3538 ft | 164 kts | 343° |
| 2026-04-27 19:47 | 27.01314 | 33.83993 | 3243 ft | 162 kts | 343° |
| 2026-04-27 19:47 | 27.02394 | 33.83672 | 2953 ft | 158 kts | 344° |
| 2026-04-27 19:48 | 27.03451 | 33.83361 | 2578 ft | 156 kts | 344° |
| 2026-04-27 19:48 | 27.04478 | 33.83055 | 2357 ft | 152 kts | 343° |
| 2026-04-27 19:48 | 27.05513 | 33.82749 | 2211 ft | 156 kts | 343° |
| 2026-04-27 19:48 | 27.06586 | 33.82433 | 2003 ft | 159 kts | 344° |
| 2026-04-27 19:49 | 27.07620 | 33.82126 | 1829 ft | 147 kts | 344° |
| 2026-04-27 19:49 | 27.08584 | 33.81843 | 1597 ft | 140 kts | 344° |
| 2026-04-27 19:49 | 27.09513 | 33.81573 | 1399 ft | 137 kts | 345° |
| 2026-04-27 19:49 | 27.10438 | 33.81320 | 1155 ft | 137 kts | 344° |
| 2026-04-27 19:50 | 27.11356 | 33.81031 | 951 ft | 136 kts | 342° |
| 2026-04-27 19:50 | 27.12264 | 33.80763 | 751 ft | 135 kts | 343° |
| 2026-04-27 19:50 | 27.13192 | 33.80493 | 632 ft | 137 kts | 343° |
| 2026-04-27 19:50 | 27.14101 | 33.80222 | 467 ft | 133 kts | 343° |
| 2026-04-27 19:51 | 27.15001 | 33.79954 | 309 ft | 136 kts | 343° |
| 2026-04-27 19:51 | 27.15919 | 33.79681 | 168 ft | 136 kts | 343° |
| 2026-04-27 19:51 | 27.16787 | 33.79425 | 111 ft | 115 kts | 346° |
| 2026-04-27 19:51 | 27.17349 | 33.79256 | 99 ft | 52 kts | 345° |
| 2026-04-27 19:52 | 27.17606 | 33.79181 | 97 ft | 35 kts | 347° |
| 2026-04-27 19:52 | 27.17756 | 33.79157 | 97 ft | 27 kts | 359° |
| 2026-04-27 19:52 | 27.17918 | 33.79185 | 97 ft | 7 kts | 15° |
| 2026-04-27 19:52 | 27.17961 | 33.79212 | 97 ft | 7 kts | 52° |
| 2026-04-27 19:53 | 27.17903 | 33.79292 | 96 ft | 9 kts | 164° |
| 2026-04-27 19:53 | 27.17833 | 33.79313 | 94 ft | 12 kts | 165° |
| 2026-04-27 19:53 | 27.17745 | 33.79338 | 94 ft | 14 kts | 165° |
| 2026-04-27 19:54 | 27.17638 | 33.79370 | 98 ft | 18 kts | 165° |
| 2026-04-27 19:54 | 27.17507 | 33.79409 | 98 ft | 22 kts | 165° |
| 2026-04-27 19:54 | 27.17351 | 33.79455 | 100 ft | 24 kts | 165° |
| 2026-04-27 19:54 | 27.17261 | 33.79484 | 101 ft | 8 kts | 153° |
| 2026-04-27 19:55 | 27.17240 | 33.79542 | 99 ft | 10 kts | 84° |
| 2026-04-27 19:55 | 27.17261 | 33.79631 | 93 ft | 15 kts | 77° |
| 2026-04-27 19:55 | 27.17294 | 33.79779 | 69 ft | 25 kts | 75° |
| 2026-04-27 19:55 | 27.17344 | 33.79985 | 49 ft | 27 kts | 75° |
| 2026-04-27 19:56 | 27.17391 | 33.80182 | 53 ft | 25 kts | 75° |
| 2026-04-27 19:56 | 27.17434 | 33.80357 | 49 ft | 21 kts | 76° |
| 2026-04-27 19:56 | 27.17455 | 33.80451 | 55 ft | 17 kts | 75° |
| 2026-04-27 19:56 | 27.17488 | 33.80583 | 57 ft | 8 kts | 70° |
| 2026-04-27 19:57 | 27.17528 | 33.80613 | 51 ft | 7 kts | 360° |
| 2026-04-27 19:57 | 27.17579 | 33.80605 | 52 ft | 7 kts | 346° |
| 2026-04-27 19:57 | 27.17613 | 33.80608 | 57 ft | 5 kts | 48° |
| 2026-04-27 19:57 | 27.17619 | 33.80632 | 53 ft | 0 kts | 77° |
| 2026-04-27 19:58 | 27.17619 | 33.80633 | 57 ft | 0 kts | 71° |
| 2026-04-27 19:58 | 27.17625 | 33.80633 | 53 ft | 1 kts | 6° |
| 2026-04-27 19:58 | 27.17649 | 33.80623 | 57 ft | 7 kts | 342° |
| 2026-04-27 19:58 | 27.17697 | 33.80631 | 53 ft | 7 kts | 56° |
| 2026-04-27 19:59 | 27.17708 | 33.80669 | 51 ft | 3 kts | 75° |
| 2026-04-27 19:59 | 27.17709 | 33.80672 | 57 ft | 0 kts | 75° |